Middleville, NJ (07855)

11:14 AM EDT on July 07, 2015 (GMT -0400)
Crandon Lakes | | Change Station
CLOSE
Current Station
Personal Weather Station
Location: Newton, NJ
Elevation: 869 ft
Nearby Weather Stations

Elev 869 ft 41.13 °N, 74.84 °W | Updated 12 seconds ago

Overcast
Overcast
77.0 °F
Feels Like 78 °F
N
2.0
Wind Variable Wind from SW
Gusts 7.0 mph

Today
High -- | Low -- °F
--% Chance of Precip.
Yesterday
High -- | Low -- °F
Precip. -- in
5:34 AM 8:34 PM
Waning Gibbous, 64% visible
Pressure 30.01 in
Visibility 10.0 miles
Clouds Scattered Clouds 2300 ft
Scattered Clouds 3100 ft
Heat Index 78 °F
Dew Point 72 °F
Humidity 84%
Rainfall 0.00 in
Snow Depth Not available.
UV 7 out of 12
Pollen .90 out of 12
Air Quality Not available.
Flu Activity Not available.
METAR KFWN 071453Z AUTO 19005KT 10SM SCT023 SCT031 27/21 A3002 RMK AO2 SLP163 60000 T02670211 58004

More Conditions Fewer Conditions

Pressure 30.01 in
Visibility 10.0 miles
Clouds Scattered Clouds 2300 ft
Scattered Clouds 3100 ft
Heat Index 78 °F
Dew Point 72 °F
Humidity 84%
Rainfall 0.00 in
Snow Depth Not available.
UV 7 out of 12
Pollen .90 out of 12
Air Quality Not available.
Flu Activity Not available.
METAR KFWN 071453Z AUTO 19005KT 10SM SCT023 SCT031 27/21 A3002 RMK AO2 SLP163 60000 T02670211 58004

More Conditions Fewer Conditions

10-Day Weather Forecast

×

Almanac

Astronomy

Jul. 07, 2015 Rise Set
Actual Time
Civil Twilight
Nautical Twilight
Astronomical Twilight
Moon
Length of Visible Light
Length of Day
Tomorrow will be .
, % of the Moon is Illuminated

Today's Extremes

State Highs State Lows

Community

WunderPhotos

Upload Photos

1,835,815 photos uploaded!

WunderBlogs® & News

Nearby

Air Quality

  Air Quality AQ Index Pollutant
Not available.

Snow Depth

Station Depth Elevation

Earthquake Activity

City Distance Mag. Time & Date
Minimum magnitude displayed is 2.5.

Coastal Water Temperatures

Place Temperature

Stations

Nearby Weather Stations

Station Location Temp. Windchill Dew Point Humidity Wind Precip. Elev Updated Type